createdAt,value
2018-09-30T11:24:55.373Z,40.14
2018-09-30T11:25:55.377Z,38.43
2018-09-30T11:27:48.549Z,39.86
2018-09-30T11:28:48.577Z,41.38
2018-09-30T11:30:41.826Z,40.51
2018-09-30T11:31:41.748Z,39.43
2018-09-30T11:33:34.917Z,40.78
2018-09-30T11:34:34.932Z,38.47
2018-09-30T11:36:42.612Z,39.62
2018-09-30T11:37:42.492Z,38.97
2018-09-30T11:39:35.702Z,38.24
2018-09-30T11:40:35.705Z,38.43
2018-09-30T11:41:35.721Z,36.58
2018-09-30T11:42:35.811Z,37.35
2018-09-30T11:43:35.826Z,36.69
2018-09-30T11:44:35.825Z,37.66
2018-09-30T11:45:35.841Z,36.61
2018-09-30T11:46:35.895Z,35.28
2018-09-30T11:47:35.893Z,35.96
2018-09-30T11:48:35.924Z,34.45
2018-09-30T11:49:35.959Z,34.26
2018-09-30T11:50:35.979Z,32.92
2018-09-30T11:51:36.023Z,31.20
2018-09-30T11:52:36.059Z,34.50
2018-09-30T11:53:36.059Z,34.48
2018-09-30T11:54:36.085Z,32.67
2018-09-30T11:55:36.117Z,31.40
2018-09-30T11:56:36.167Z,31.78
2018-09-30T11:57:36.183Z,32.86
2018-09-30T11:58:36.211Z,32.17
2018-09-30T11:59:36.241Z,31.86
2018-09-30T12:00:36.274Z,33.02
2018-09-30T12:01:36.313Z,33.31
2018-09-30T12:02:36.339Z,34.74
2018-09-30T12:03:36.362Z,36.96
2018-09-30T12:04:36.394Z,39.66
2018-09-30T12:05:36.428Z,40.32
2018-09-30T12:06:36.478Z,37.81
2018-09-30T12:07:36.502Z,39.82
2018-09-30T12:08:36.522Z,41.44
2018-09-30T12:09:36.568Z,43.27
2018-09-30T12:10:36.603Z,42.47
2018-09-30T12:11:36.616Z,42.19
2018-09-30T12:12:36.640Z,45.17
2018-09-30T12:13:36.686Z,42.74
2018-09-30T12:14:36.696Z,38.79
2018-09-30T12:15:36.728Z,40.51
2018-09-30T12:16:36.777Z,43.01
2018-09-30T12:17:36.779Z,38.97
2018-09-30T12:18:36.984Z,39.91
2018-09-30T12:19:36.842Z,37.99
2018-09-30T12:20:36.884Z,38.66
2018-09-30T12:21:36.919Z,39.43
2018-09-30T12:22:36.945Z,39.72
2018-09-30T12:23:36.966Z,40.88
2018-09-30T12:24:37.013Z,40.49
2018-09-30T12:25:37.014Z,37.99
2018-09-30T12:26:37.055Z,41.24
2018-09-30T12:27:37.070Z,39.24
2018-09-30T12:28:37.101Z,41.72
2018-09-30T12:29:37.141Z,40.95
2018-09-30T12:30:37.171Z,42.49
2018-09-30T12:31:37.263Z,44.12
2018-09-30T12:32:37.239Z,44.22
2018-09-30T12:33:37.242Z,46.04
2018-09-30T12:34:37.282Z,43.93
2018-09-30T12:35:37.334Z,40.28
2018-09-30T12:36:37.323Z,43.64
2018-09-30T12:37:37.371Z,42.77
2018-09-30T12:38:37.371Z,40.45
2018-09-30T12:39:37.423Z,46.12
2018-09-30T12:40:37.441Z,41.99
2018-09-30T12:41:37.463Z,46.69
2018-09-30T12:42:37.503Z,44.87
2018-09-30T12:43:37.516Z,44.96
2018-09-30T12:44:37.567Z,46.98
2018-09-30T12:45:37.573Z,44.10
2018-09-30T12:46:37.603Z,40.73
2018-09-30T12:47:37.638Z,40.35
2018-09-30T12:48:37.652Z,42.37
2018-09-30T12:49:37.688Z,44.38
2018-09-30T12:50:37.705Z,44.10
2018-09-30T12:51:37.736Z,46.02
2018-09-30T12:52:37.779Z,47.17
2018-09-30T12:53:37.793Z,46.28
2018-09-30T12:54:37.833Z,41.87
2018-09-30T12:55:37.839Z,43.31
2018-09-30T12:56:37.866Z,46.48
2018-09-30T12:57:37.888Z,50.03
2018-09-30T12:58:37.928Z,45.32
2018-09-30T12:59:37.956Z,45.23
2018-09-30T13:00:37.989Z,47.82
2018-09-30T13:01:38.001Z,43.31
2018-09-30T13:02:38.028Z,41.77
2018-09-30T13:03:38.075Z,40.81
2018-09-30T13:04:38.095Z,40.23
2018-09-30T13:05:38.169Z,40.52
2018-09-30T13:06:38.137Z,40.62
2018-09-30T13:07:38.160Z,40.91
2018-09-30T13:08:38.205Z,40.33
2018-09-30T13:09:38.219Z,42.06
2018-09-30T13:10:38.327Z,43.31
2018-09-30T13:11:38.280Z,43.70
2018-09-30T13:12:38.297Z,42.61
2018-09-30T13:13:38.394Z,41.29
2018-09-30T13:14:38.361Z,40.41
2018-09-30T13:15:38.392Z,40.91
2018-09-30T13:16:38.419Z,42.13
2018-09-30T13:17:38.439Z,41.87
2018-09-30T13:18:38.481Z,43.87
2018-09-30T13:19:38.486Z,42.25
2018-09-30T13:20:38.587Z,40.62
2018-09-30T13:21:38.538Z,41.10
2018-09-30T13:22:38.657Z,42.25
2018-09-30T13:23:38.600Z,41.87
2018-09-30T13:24:38.627Z,40.91
2018-09-30T13:25:38.646Z,40.33
2018-09-30T13:26:38.682Z,40.14
2018-09-30T13:27:38.698Z,39.66
2018-09-30T13:28:38.731Z,40.52
2018-09-30T13:29:38.765Z,42.13
2018-09-30T13:30:38.774Z,41.85
2018-09-30T13:31:38.822Z,43.57
2018-09-30T13:32:38.832Z,42.13
2018-09-30T13:33:38.915Z,40.79
2018-09-30T13:34:38.900Z,40.81
2018-09-30T13:35:38.948Z,41.58
2018-09-30T13:36:38.954Z,41.20
2018-09-30T13:37:38.975Z,41.96
2018-09-30T13:38:38.999Z,40.91
2018-09-30T13:39:39.015Z,44.08
2018-09-30T13:40:39.189Z,43.19
2018-09-30T13:41:39.073Z,42.33
2018-09-30T13:42:39.099Z,43.38
2018-09-30T13:43:39.122Z,44.73
2018-09-30T13:44:39.169Z,47.32
2018-09-30T13:45:39.181Z,45.21
2018-09-30T13:46:39.200Z,45.40
2018-09-30T13:47:39.237Z,50.39
2018-09-30T13:48:39.255Z,45.30
2018-09-30T13:49:39.297Z,43.19
2018-09-30T13:50:39.313Z,43.29
2018-09-30T13:51:39.343Z,42.13
2018-09-30T13:52:39.357Z,44.54
2018-09-30T13:53:39.393Z,40.60
2018-09-30T13:54:39.420Z,40.41
2018-09-30T13:55:39.460Z,40.70
2018-09-30T13:56:39.473Z,40.70
2018-09-30T13:57:39.509Z,45.50
2018-09-30T13:58:39.524Z,45.30
2018-09-30T13:59:39.545Z,45.98
2018-09-30T14:00:39.578Z,44.54
2018-09-30T14:01:39.601Z,42.23
2018-09-30T14:02:39.633Z,43.29
2018-09-30T14:03:39.652Z,44.92
2018-09-30T14:04:39.676Z,46.65
2018-09-30T14:05:39.724Z,43.87
2018-09-30T14:06:39.732Z,47.71
2018-09-30T14:07:39.762Z,45.68
2018-09-30T14:08:39.795Z,45.37
2018-09-30T14:09:39.818Z,44.51
2018-09-30T14:10:39.852Z,46.05
2018-09-30T14:11:39.878Z,43.27
2018-09-30T14:12:39.909Z,41.75
2018-09-30T14:13:39.935Z,44.54
2018-09-30T14:14:39.945Z,45.59
2018-09-30T14:15:39.993Z,42.81
2018-09-30T14:16:40.011Z,42.23
2018-09-30T14:17:40.069Z,43.10
2018-09-30T14:18:40.057Z,48.09
2018-09-30T14:19:40.081Z,47.22
2018-09-30T14:20:40.119Z,42.33
2018-09-30T14:21:40.134Z,41.75
2018-09-30T14:22:40.171Z,42.04
2018-09-30T14:23:40.188Z,41.08
2018-09-30T14:24:40.222Z,42.13
2018-09-30T14:25:40.251Z,43.67
2018-09-30T14:26:40.948Z,43.19
2018-09-30T14:27:40.316Z,41.75
2018-09-30T14:28:40.356Z,42.61
2018-09-30T14:29:40.359Z,43.38
2018-09-30T14:30:40.376Z,44.34
2018-09-30T14:31:40.407Z,41.94
2018-09-30T14:32:40.427Z,41.94
2018-09-30T14:33:40.458Z,40.60
2018-09-30T14:34:40.489Z,42.23
2018-09-30T14:35:40.506Z,41.56
2018-09-30T14:36:40.531Z,40.22
2018-09-30T14:37:40.556Z,43.38
2018-09-30T14:38:40.584Z,43.19
2018-09-30T14:39:40.610Z,44.34
2018-09-30T14:40:40.632Z,43.94
2018-09-30T14:41:40.664Z,42.61
2018-09-30T14:42:40.690Z,47.58
2018-09-30T14:43:40.728Z,44.80
2018-09-30T14:44:40.740Z,43.27
2018-09-30T14:45:40.775Z,41.35
2018-09-30T14:46:40.791Z,42.04
2018-09-30T14:47:40.824Z,41.83
2018-09-30T14:48:41.469Z,43.36
2018-09-30T14:49:40.867Z,43.17
2018-09-30T14:50:40.919Z,43.87
2018-09-30T14:51:40.925Z,47.41
2018-09-30T14:52:40.951Z,43.57
2018-09-30T14:53:40.973Z,43.48
2018-09-30T14:54:41.003Z,42.69
2018-09-30T14:55:41.022Z,41.75
2018-09-30T14:56:41.066Z,42.90
2018-09-30T14:57:41.095Z,45.01
2018-09-30T14:58:41.113Z,43.19
2018-09-30T14:59:41.174Z,43.29
2018-09-30T15:00:41.155Z,45.11
2018-09-30T15:01:41.198Z,42.98
2018-09-30T15:02:41.212Z,45.59
2018-09-30T15:03:41.243Z,43.96
2018-09-30T15:04:41.264Z,42.23
2018-09-30T15:05:41.286Z,41.17
2018-09-30T15:06:41.330Z,40.29
2018-09-30T15:07:41.342Z,41.25
2018-09-30T15:08:41.390Z,41.63
2018-09-30T15:09:41.402Z,41.35
2018-09-30T15:10:41.523Z,40.87
2018-09-30T15:11:41.454Z,42.81
2018-09-30T15:12:41.476Z,45.98
2018-09-30T15:13:41.500Z,43.07
2018-09-30T15:14:41.524Z,43.27
2018-09-30T15:15:41.589Z,43.36
2018-09-30T15:16:41.583Z,43.00
2018-09-30T15:17:41.616Z,45.50
2018-09-30T15:18:41.633Z,45.40
2018-09-30T15:19:41.668Z,43.29
2018-09-30T15:20:41.683Z,43.27
2018-09-30T15:21:41.711Z,42.13
2018-09-30T15:22:41.749Z,41.25
2018-09-30T15:23:41.771Z,42.30
2018-09-30T15:24:41.803Z,41.44
2018-09-30T15:25:41.816Z,42.90
2018-09-30T15:26:41.863Z,41.75
2018-09-30T15:27:41.875Z,40.79
2018-09-30T15:28:41.909Z,40.48
2018-09-30T15:29:41.951Z,41.93
2018-09-30T15:30:41.996Z,42.21
2018-09-30T15:31:41.994Z,42.69
2018-09-30T15:32:42.025Z,43.36
2018-09-30T15:33:42.050Z,43.84
2018-09-30T15:34:42.054Z,44.42
2018-09-30T15:35:42.099Z,45.47
2018-09-30T15:36:42.109Z,45.47
2018-09-30T15:37:42.134Z,45.18
2018-09-30T15:38:42.157Z,46.03
2018-09-30T15:39:42.187Z,44.11
2018-09-30T15:40:42.221Z,44.11
2018-09-30T15:41:42.244Z,45.28
2018-09-30T15:42:42.287Z,43.94
2018-09-30T15:43:42.360Z,43.55
2018-09-30T15:44:42.336Z,45.07
2018-09-30T15:45:42.353Z,45.54
2018-09-30T15:46:42.370Z,43.91
2018-09-30T15:47:42.397Z,43.84
2018-09-30T15:48:42.434Z,41.93
2018-09-30T15:49:42.644Z,41.73
2018-09-30T15:50:42.493Z,43.07
2018-09-30T15:51:42.508Z,44.90
2018-09-30T15:52:42.688Z,44.42
2018-09-30T15:53:42.568Z,43.27
2018-09-30T15:54:42.593Z,44.59
2018-09-30T15:55:42.607Z,44.97
2018-09-30T15:56:42.644Z,43.34
2018-09-30T15:57:42.660Z,42.69
2018-09-30T15:58:42.708Z,43.34
2018-09-30T15:59:42.714Z,43.73
2018-09-30T16:00:42.743Z,44.87
2018-09-30T16:01:42.784Z,42.98
2018-09-30T16:02:42.792Z,43.34
2018-09-30T16:03:42.857Z,42.29
2018-09-30T16:04:42.913Z,43.24
2018-09-30T16:05:42.897Z,43.73
2018-09-30T16:06:42.931Z,44.87
2018-09-30T16:07:42.935Z,46.22
2018-09-30T16:08:42.976Z,47.56
2018-09-30T16:09:42.974Z,47.82
2018-09-30T16:10:43.024Z,48.59
2018-09-30T16:11:43.026Z,49.45
2018-09-30T16:12:43.167Z,49.74
2018-09-30T16:13:43.077Z,49.36
2018-09-30T16:14:43.128Z,49.45
2018-09-30T16:15:43.129Z,50.51
2018-09-30T16:16:43.168Z,50.70
2018-09-30T16:17:43.200Z,49.43
2018-09-30T16:18:43.222Z,49.84
2018-09-30T16:19:43.263Z,49.91
2018-09-30T16:20:43.271Z,51.63
2018-09-30T16:21:43.284Z,49.62
2018-09-30T16:22:43.325Z,50.38
2018-09-30T16:23:43.351Z,49.52
2018-09-30T16:24:43.413Z,51.06
2018-09-30T16:25:43.404Z,52.59
2018-09-30T16:26:43.422Z,52.59
2018-09-30T16:27:43.529Z,52.97
2018-09-30T16:28:43.494Z,53.07
2018-09-30T16:29:43.502Z,53.26
2018-09-30T16:30:43.533Z,53.16
2018-09-30T16:31:43.549Z,53.26
2018-09-30T16:32:43.601Z,53.45
2018-09-30T16:33:43.614Z,54.22
2018-09-30T16:34:43.636Z,53.42
2018-09-30T16:35:43.696Z,54.28
2018-09-30T16:36:43.772Z,54.10
2018-09-30T16:37:43.717Z,54.86
2018-09-30T16:38:43.780Z,54.77
2018-09-30T16:39:43.771Z,54.00
2018-09-30T16:40:43.791Z,54.10
2018-09-30T16:41:43.820Z,53.71
2018-09-30T16:42:43.834Z,54.57
2018-09-30T16:43:43.892Z,54.00
2018-09-30T16:44:43.891Z,54.10
2018-09-30T16:45:43.916Z,53.71
2018-09-30T16:46:43.955Z,54.00
2018-09-30T16:47:43.966Z,54.38
2018-09-30T16:48:43.994Z,54.67
2018-09-30T16:49:44.029Z,54.77
2018-09-30T16:50:44.125Z,55.34
2018-09-30T16:51:44.084Z,55.73
2018-09-30T16:52:44.113Z,55.63
2018-09-30T16:53:44.128Z,56.01
2018-09-30T16:54:44.167Z,56.87
2018-09-30T16:55:44.187Z,56.39
2018-09-30T16:56:44.247Z,56.39
2018-09-30T16:57:44.238Z,57.16
2018-09-30T16:58:44.293Z,57.06
2018-09-30T16:59:44.279Z,56.97
2018-09-30T17:00:44.320Z,56.30
2018-09-30T17:01:44.354Z,56.20
2018-09-30T17:02:44.353Z,56.20
2018-09-30T17:03:44.399Z,56.49
2018-09-30T17:04:44.427Z,56.68
2018-09-30T17:05:44.448Z,57.99
2018-09-30T17:06:44.546Z,57.80
2018-09-30T17:07:44.505Z,57.70
2018-09-30T17:08:44.532Z,57.90
2018-09-30T17:09:44.581Z,57.80
2018-09-30T17:10:44.599Z,58.76
2018-09-30T17:11:44.609Z,58.47
2018-09-30T17:12:44.678Z,58.18
2018-09-30T17:13:44.646Z,58.18
2018-09-30T17:14:44.708Z,58.86
2018-09-30T17:15:44.740Z,58.76
2018-09-30T17:16:44.733Z,58.86
2018-09-30T17:17:44.767Z,60.00
2018-09-30T17:18:44.781Z,61.54
2018-09-30T17:19:44.818Z,60.38
2018-09-30T17:20:44.843Z,59.88
2018-09-30T17:21:44.905Z,60.29
2018-09-30T17:22:44.883Z,60.16
2018-09-30T17:23:44.925Z,60.26
2018-09-30T17:24:44.956Z,60.35
2018-09-30T17:25:44.959Z,61.12
2018-09-30T17:26:44.991Z,61.31
2018-09-30T17:27:45.067Z,60.55
2018-09-30T17:28:45.093Z,61.22
2018-09-30T17:29:45.071Z,61.12
2018-09-30T17:30:45.102Z,61.79
2018-09-30T17:31:45.183Z,62.08
2018-09-30T17:32:45.161Z,61.51
2018-09-30T17:33:45.200Z,61.41
2018-09-30T17:34:45.203Z,60.67
2018-09-30T17:35:45.230Z,61.15
2018-09-30T17:36:45.253Z,60.93
2018-09-30T17:37:45.279Z,61.44
2018-09-30T17:38:45.297Z,61.63
2018-09-30T17:39:45.332Z,62.20
2018-09-30T17:40:46.013Z,62.74
2018-09-30T17:41:45.416Z,62.17
2018-09-30T17:42:45.402Z,63.03
2018-09-30T17:43:45.456Z,63.60
2018-09-30T17:44:45.448Z,63.70
2018-09-30T17:45:45.484Z,62.94
2018-09-30T17:46:45.500Z,63.13
2018-09-30T17:47:45.532Z,63.32
2018-09-30T17:48:45.559Z,62.84
2018-09-30T17:49:45.612Z,63.42
2018-09-30T17:50:45.621Z,63.99
2018-09-30T17:51:45.646Z,64.75
2018-09-30T17:52:45.716Z,64.56
2018-09-30T17:53:45.783Z,65.04
2018-09-30T17:54:45.755Z,65.81
2018-09-30T17:55:45.770Z,65.90
2018-09-30T17:56:45.772Z,65.77
2018-09-30T17:57:45.812Z,66.76
2018-09-30T17:58:45.825Z,66.44
2018-09-30T17:59:45.855Z,66.16
2018-09-30T18:00:45.878Z,65.77
2018-09-30T18:01:45.926Z,65.39
2018-09-30T18:02:45.959Z,66.35
2018-09-30T18:03:45.976Z,66.44
2018-09-30T18:04:46.046Z,65.97
2018-09-30T18:05:46.020Z,66.09
2018-09-30T18:06:46.048Z,66.06
2018-09-30T18:07:46.072Z,65.90
2018-09-30T18:08:46.128Z,65.42
2018-09-30T18:09:46.157Z,65.90
2018-09-30T18:10:46.158Z,66.25
2018-09-30T18:11:46.209Z,66.35
2018-09-30T18:12:46.183Z,67.40
2018-09-30T18:13:46.218Z,68.26
2018-09-30T18:14:46.286Z,68.13
2018-09-30T18:15:46.327Z,68.51
2018-09-30T18:16:46.337Z,69.76
2018-09-30T18:17:46.336Z,69.85
2018-09-30T18:18:46.368Z,69.56
2018-09-30T18:19:46.362Z,69.95
2018-09-30T18:20:46.394Z,69.76
2018-09-30T18:21:46.421Z,69.56
2018-09-30T18:22:46.450Z,69.95
2018-09-30T18:23:46.490Z,70.04
2018-09-30T18:24:47.523Z,69.66
2018-09-30T18:25:46.577Z,69.47
2018-09-30T18:26:46.558Z,69.76
2018-09-30T18:27:46.606Z,69.76
2018-09-30T18:28:46.589Z,70.14
2018-09-30T18:29:46.644Z,69.56
2018-09-30T18:30:46.653Z,70.14
2018-09-30T18:31:46.680Z,70.04
2018-09-30T18:32:46.691Z,70.71
2018-09-30T18:33:46.745Z,71.09
2018-09-30T18:34:46.744Z,70.61
2018-09-30T18:35:46.790Z,71.28
2018-09-30T18:36:46.826Z,70.81
2018-09-30T18:37:46.860Z,70.52
2018-09-30T18:38:46.871Z,71.28
2018-09-30T18:39:46.907Z,71.28
2018-09-30T18:40:46.932Z,70.33
2018-09-30T18:41:46.956Z,69.85
2018-09-30T18:42:46.972Z,70.90
2018-09-30T18:43:47.018Z,70.71
2018-09-30T18:44:47.013Z,70.33
2018-09-30T18:45:47.026Z,70.81
2018-09-30T18:46:47.079Z,70.04
2018-09-30T18:47:47.110Z,69.66
2018-09-30T18:48:47.145Z,69.27
2018-09-30T18:49:47.195Z,69.76
2018-09-30T18:50:47.185Z,70.14
2018-09-30T18:51:47.201Z,70.14
2018-09-30T18:52:47.216Z,71.38
2018-09-30T18:53:47.251Z,73.58
2018-09-30T18:54:47.256Z,73.83
2018-09-30T18:55:47.352Z,74.69
2018-09-30T18:56:48.046Z,75.26
2018-09-30T18:57:47.468Z,75.35
2018-09-30T18:58:47.366Z,74.59
2018-09-30T18:59:47.414Z,74.78
2018-09-30T19:00:47.402Z,75.16
2018-09-30T19:01:47.447Z,75.26
2018-09-30T19:02:47.470Z,74.49
2018-09-30T19:03:47.500Z,72.49
2018-09-30T19:04:47.506Z,72.39
2018-09-30T19:05:47.539Z,73.07
2018-09-30T19:06:47.591Z,73.63
2018-09-30T19:07:48.536Z,73.07
2018-09-30T19:08:47.623Z,74.11
2018-09-30T19:09:47.616Z,74.78
2018-09-30T19:10:47.647Z,73.54
2018-09-30T19:11:47.688Z,73.44
2018-09-30T19:12:47.752Z,72.78
2018-09-30T19:13:47.748Z,73.25
2018-09-30T19:14:47.770Z,74.59
2018-09-30T19:15:47.832Z,74.40
2018-09-30T19:16:47.810Z,74.40
2018-09-30T19:17:47.847Z,75.16
2018-09-30T19:18:47.881Z,76.31
2018-09-30T19:19:47.871Z,76.65
2018-09-30T19:20:47.922Z,77.03
2018-09-30T19:21:47.959Z,77.70
2018-09-30T19:22:48.024Z,77.13
2018-09-30T19:23:47.999Z,78.56
2018-09-30T19:24:48.008Z,78.28
2018-09-30T19:25:48.017Z,77.42
2018-09-30T19:26:48.072Z,76.65
2018-09-30T19:27:48.065Z,76.37
2018-09-30T19:28:48.103Z,75.07
2018-09-30T19:29:48.132Z,75.74
2018-09-30T19:30:48.161Z,76.31
2018-09-30T19:31:48.189Z,76.08
2018-09-30T19:32:48.207Z,77.13
2018-09-30T19:33:48.220Z,77.23
2018-09-30T19:34:48.268Z,77.99
2018-09-30T19:35:48.479Z,77.99
2018-09-30T19:36:48.295Z,78.47
2018-09-30T19:37:48.331Z,77.70
2018-09-30T19:38:48.355Z,77.13
2018-09-30T19:39:48.390Z,77.80
2018-09-30T19:40:48.424Z,77.89
2018-09-30T19:41:48.525Z,78.47
2018-09-30T19:42:48.464Z,78.75
2018-09-30T19:43:48.569Z,79.14
2018-09-30T19:44:48.505Z,79.80
2018-09-30T19:45:48.566Z,79.48
2018-09-30T19:46:48.584Z,80.19
2018-09-30T19:47:48.577Z,80.33
2018-09-30T19:48:48.685Z,80.81
2018-09-30T19:49:48.681Z,80.81
2018-09-30T19:50:48.695Z,80.81
2018-09-30T19:51:48.700Z,81.10
2018-09-30T19:52:48.706Z,81.29
2018-09-30T19:53:48.732Z,81.01
2018-09-30T19:54:48.776Z,80.81
2018-09-30T19:55:48.788Z,80.43
2018-09-30T19:56:48.813Z,79.61
2018-09-30T19:57:48.848Z,78.56
2018-09-30T19:58:48.868Z,78.09
2018-09-30T19:59:48.881Z,78.28
2018-09-30T20:00:48.963Z,79.14
2018-09-30T20:01:48.955Z,79.61
2018-09-30T20:02:48.960Z,80.05
2018-09-30T20:03:48.970Z,80.43
2018-09-30T20:04:49.540Z,80.72
2018-09-30T20:05:49.023Z,80.53
2018-09-30T20:06:49.059Z,80.47
2018-09-30T20:07:49.092Z,80.43
2018-09-30T20:08:49.125Z,80.81
2018-09-30T20:09:49.118Z,81.38
2018-09-30T20:10:49.169Z,81.38
2018-09-30T20:11:49.173Z,81.20
2018-09-30T20:12:49.249Z,80.15
2018-09-30T20:13:49.220Z,79.61
2018-09-30T20:14:49.244Z,78.75
2018-09-30T20:15:49.295Z,77.99
2018-09-30T20:16:49.310Z,77.13
2018-09-30T20:17:49.331Z,77.13
2018-09-30T20:18:49.352Z,77.42
2018-09-30T20:19:49.493Z,78.56
2018-09-30T20:20:49.456Z,78.47
2018-09-30T20:21:49.409Z,78.47
2018-09-30T20:22:49.458Z,78.09
2018-09-30T20:23:49.463Z,77.99
2018-09-30T20:24:49.510Z,77.42
2018-09-30T20:25:49.644Z,76.56
2018-09-30T20:26:49.542Z,77.13
2018-09-30T20:27:49.689Z,77.23
2018-09-30T20:28:49.598Z,78.18
2018-09-30T20:29:49.634Z,79.04
2018-09-30T20:30:49.637Z,79.80
2018-09-30T20:31:49.690Z,80.91
2018-09-30T20:32:49.690Z,80.47
2018-09-30T20:33:49.728Z,80.81
2018-09-30T20:34:49.745Z,80.91
2018-09-30T20:35:49.764Z,82.15
2018-09-30T20:36:49.777Z,81.44
2018-09-30T20:37:49.832Z,81.82
2018-09-30T20:38:49.834Z,82.30
2018-09-30T20:39:49.879Z,81.58
2018-09-30T20:40:49.873Z,81.29
2018-09-30T20:41:49.906Z,81.86
2018-09-30T20:42:50.028Z,81.86
2018-09-30T20:43:49.958Z,81.10
2018-09-30T20:44:49.986Z,81.92
2018-09-30T20:45:50.012Z,82.49
2018-09-30T20:46:50.034Z,83.06
2018-09-30T20:47:50.056Z,82.11
2018-09-30T20:48:50.074Z,81.92
2018-09-30T20:49:50.237Z,81.73
2018-09-30T20:50:50.126Z,81.44
2018-09-30T20:51:50.189Z,80.96
2018-09-30T20:52:50.173Z,80.43
2018-09-30T20:53:50.194Z,80.43
2018-09-30T20:54:50.221Z,80.43
2018-09-30T20:55:50.280Z,81.01
2018-09-30T20:56:50.296Z,80.81
2018-09-30T20:57:50.304Z,81.20
2018-09-30T20:58:50.326Z,81.77
2018-09-30T20:59:50.348Z,81.35
2018-09-30T21:00:50.400Z,82.20
2018-09-30T21:01:50.407Z,82.78
2018-09-30T21:02:50.433Z,83.06
2018-09-30T21:03:50.449Z,83.64
2018-09-30T21:04:50.491Z,83.54
2018-09-30T21:05:50.493Z,83.06
2018-09-30T21:06:50.534Z,82.87
2018-09-30T21:07:50.553Z,82.78
2018-09-30T21:08:50.595Z,83.06
2018-09-30T21:09:50.599Z,83.35
2018-09-30T21:10:50.622Z,83.44
2018-09-30T21:11:50.672Z,83.16
2018-09-30T21:12:50.683Z,83.25
2018-09-30T21:13:50.783Z,83.44
2018-09-30T21:14:50.721Z,83.83
2018-09-30T21:15:50.736Z,84.01
2018-09-30T21:16:50.774Z,84.11
2018-09-30T21:17:50.800Z,84.20
2018-09-30T21:18:50.844Z,84.01
2018-09-30T21:19:50.838Z,83.16
2018-09-30T21:20:50.855Z,83.44
2018-09-30T21:21:50.899Z,82.87
2018-09-30T21:22:50.910Z,82.59
2018-09-30T21:23:50.928Z,82.97
2018-09-30T21:24:50.955Z,83.35
2018-09-30T21:25:50.991Z,82.97
2018-09-30T21:26:51.006Z,83.06
2018-09-30T21:27:51.106Z,83.83
2018-09-30T21:28:51.058Z,84.30
2018-09-30T21:29:51.090Z,84.20
2018-09-30T21:30:51.125Z,84.88
2018-09-30T21:31:51.133Z,84.59
2018-09-30T21:32:51.170Z,84.30
2018-09-30T21:33:51.183Z,84.11
2018-09-30T21:34:51.209Z,83.83
2018-09-30T21:35:51.242Z,84.11
2018-09-30T21:36:51.263Z,83.92
2018-09-30T21:37:51.276Z,84.01
2018-09-30T21:38:51.319Z,84.59
2018-09-30T21:39:51.329Z,83.83
2018-09-30T21:40:51.370Z,84.01
2018-09-30T21:41:51.385Z,84.26
2018-09-30T21:42:51.410Z,84.30
2018-09-30T21:43:51.421Z,84.01
2018-09-30T21:44:51.465Z,84.20
2018-09-30T21:45:51.499Z,84.20
2018-09-30T21:46:51.513Z,84.01
2018-09-30T21:47:51.523Z,83.64
2018-09-30T21:48:51.647Z,84.11
2018-09-30T21:49:51.618Z,84.59
2018-09-30T21:50:51.606Z,85.31
2018-09-30T21:51:51.616Z,85.60
2018-09-30T21:52:51.649Z,84.83
2018-09-30T21:53:51.671Z,84.74
2018-09-30T21:54:51.737Z,84.69
2018-09-30T21:55:51.728Z,84.59
2018-09-30T21:56:51.764Z,84.83
2018-09-30T21:57:51.765Z,84.55
2018-09-30T21:58:51.797Z,85.12
2018-09-30T21:59:51.820Z,85.41
2018-09-30T22:00:51.854Z,85.21
2018-09-30T22:01:51.865Z,85.12
2018-09-30T22:02:51.909Z,85.12
2018-09-30T22:03:51.913Z,85.41
2018-09-30T22:04:51.951Z,85.69
2018-09-30T22:05:52.022Z,86.45
2018-09-30T22:06:51.995Z,85.78
2018-09-30T22:07:52.007Z,85.41
2018-09-30T22:08:52.048Z,85.88
2018-09-30T22:09:52.064Z,86.26
2018-09-30T22:10:52.129Z,86.07
2018-09-30T22:11:52.115Z,85.60
2018-09-30T22:12:52.133Z,86.16
2018-09-30T22:13:52.171Z,85.31
2018-09-30T22:14:52.191Z,85.69
2018-09-30T22:15:52.232Z,86.07
2018-09-30T22:16:52.228Z,84.40
2018-09-30T22:17:52.261Z,83.44
2018-09-30T22:18:52.281Z,83.06
2018-09-30T22:19:52.327Z,83.44
2018-09-30T22:20:52.338Z,83.35
2018-09-30T22:21:52.355Z,83.83
2018-09-30T22:22:52.379Z,83.92
2018-09-30T22:23:52.399Z,84.20
2018-09-30T22:24:52.430Z,84.49
2018-09-30T22:25:52.453Z,84.78
2018-09-30T22:26:52.476Z,85.31
2018-09-30T22:27:52.498Z,85.41
2018-09-30T22:28:52.522Z,85.60
2018-09-30T22:29:52.546Z,86.36
2018-09-30T22:30:52.686Z,86.65
2018-09-30T22:31:52.600Z,85.88
2018-09-30T22:32:52.659Z,86.07
2018-09-30T22:33:52.653Z,86.74
2018-09-30T22:34:52.673Z,86.16
2018-09-30T22:35:52.693Z,86.07
2018-09-30T22:36:52.712Z,86.36
2018-09-30T22:37:52.763Z,86.26
2018-09-30T22:38:52.765Z,86.36
2018-09-30T22:39:52.805Z,87.12
2018-09-30T22:40:52.815Z,87.55
2018-09-30T22:41:52.853Z,87.31
2018-09-30T22:42:52.861Z,87.12
2018-09-30T22:43:52.904Z,86.93
2018-09-30T22:44:52.912Z,87.50
2018-09-30T22:45:52.951Z,87.60
2018-09-30T22:46:52.966Z,87.98
2018-09-30T22:47:52.982Z,87.98
2018-09-30T22:48:53.012Z,87.84
2018-09-30T22:49:53.030Z,87.46
2018-09-30T22:50:53.055Z,88.03
2018-09-30T22:51:53.087Z,88.60
2018-09-30T22:52:53.108Z,88.79
2018-09-30T22:53:53.131Z,89.07
2018-09-30T22:54:54.072Z,89.94
2018-09-30T22:55:53.192Z,89.94
2018-09-30T22:56:53.203Z,91.08
2018-09-30T22:57:53.248Z,89.94
2018-09-30T22:58:53.258Z,90.31
2018-09-30T22:59:53.266Z,90.12
2018-09-30T23:00:53.300Z,90.12
2018-09-30T23:01:53.338Z,89.26
2018-09-30T23:02:53.355Z,88.70
2018-09-30T23:03:53.372Z,89.17
2018-09-30T23:04:53.396Z,89.17
2018-09-30T23:05:53.423Z,88.89
2018-09-30T23:06:53.451Z,89.07
2018-09-30T23:07:53.469Z,88.98
2018-09-30T23:08:53.499Z,89.07
2018-09-30T23:09:53.524Z,88.70
2018-09-30T23:10:53.546Z,88.79
2018-09-30T23:11:53.567Z,89.17
2018-09-30T23:12:53.588Z,88.70
2018-09-30T23:13:53.612Z,88.98
2018-09-30T23:14:53.636Z,89.17
2018-09-30T23:15:53.661Z,89.65
2018-09-30T23:16:53.695Z,89.26
2018-09-30T23:17:53.717Z,89.94
2018-09-30T23:18:53.741Z,88.70
2018-09-30T23:19:53.762Z,88.89
2018-09-30T23:20:53.791Z,89.75
2018-09-30T23:21:53.813Z,88.79
2018-09-30T23:22:53.855Z,88.89
2018-09-30T23:23:53.862Z,89.07
2018-09-30T23:24:53.908Z,88.70
2018-09-30T23:25:53.897Z,88.98
2018-09-30T23:26:53.935Z,88.79
2018-09-30T23:27:53.965Z,88.79
2018-09-30T23:28:53.972Z,88.60
2018-09-30T23:29:53.999Z,88.60
2018-09-30T23:30:54.023Z,88.51
2018-09-30T23:31:54.050Z,88.41
2018-09-30T23:32:54.080Z,88.03
2018-09-30T23:33:54.093Z,87.88
2018-09-30T23:34:54.122Z,87.27
2018-09-30T23:35:54.140Z,87.21
2018-09-30T23:36:54.179Z,87.65
2018-09-30T23:37:54.190Z,87.93
2018-09-30T23:38:54.231Z,87.74
2018-09-30T23:39:54.237Z,88.12
2018-09-30T23:40:54.268Z,88.03
2018-09-30T23:41:54.294Z,88.03
2018-09-30T23:42:54.318Z,88.79
2018-09-30T23:43:54.336Z,87.84
2018-09-30T23:44:54.373Z,88.70
2018-09-30T23:45:54.384Z,88.51
2018-09-30T23:46:54.410Z,88.70
2018-09-30T23:47:54.443Z,88.89
2018-09-30T23:48:54.460Z,88.51
2018-09-30T23:49:54.476Z,88.79
2018-09-30T23:50:54.513Z,88.03
2018-09-30T23:51:54.547Z,88.03
2018-09-30T23:52:54.582Z,88.70
2018-09-30T23:53:54.613Z,88.12
2018-09-30T23:54:54.613Z,88.12
2018-09-30T23:55:54.633Z,88.22
2018-09-30T23:56:54.669Z,88.03
2018-09-30T23:57:54.700Z,88.41
2018-09-30T23:58:54.706Z,88.89
2018-09-30T23:59:54.729Z,89.07
